Time;durP1;ratioP1;P1;durP2;ratioP2;P2;SDS_P1;SDS_P2;PMS_P1;PMS_P2;Temp;Humidity;BMP_temperature;BMP_pressure;BME280_temperature;BME280_humidity;BME280_pressure;Samples;Min_cycle;Max_cycle;Signal;HPM_P1;HPM_P2
2021/05/21 00:02:13;;;;;;;1999.90;999.90;;;10.00;99.90;;;;;;5005325;28;20561;-78
2021/05/21 00:04:38;;;;;;;1999.90;999.90;;;10.00;99.90;;;;;;5014292;28;20225;-78
2021/05/21 00:07:04;;;;;;;1999.90;999.90;;;9.90;99.90;;;;;;5005965;28;20168;-79
2021/05/21 00:09:29;;;;;;;1999.90;999.90;;;9.90;99.90;;;;;;5011967;28;20179;-78
2021/05/21 00:11:55;;;;;;;1999.90;999.90;;;9.90;99.90;;;;;;5015790;28;20172;-78
2021/05/21 00:14:21;;;;;;;1999.90;999.90;;;9.90;99.90;;;;;;5008859;28;20599;-79
2021/05/21 00:16:47;;;;;;;1999.90;999.90;;;9.90;99.90;;;;;;5015472;28;20298;-78
2021/05/21 00:19:13;;;;;;;1999.90;999.90;;;9.80;99.90;;;;;;5015525;28;20179;-78
2021/05/21 00:21:38;;;;;;;1999.90;999.90;;;9.90;99.90;;;;;;4997727;28;20179;-78
2021/05/21 00:24:04;;;;;;;1999.90;999.90;;;9.90;99.90;;;;;;5015264;28;20301;-78
2021/05/21 00:26:30;;;;;;;1999.90;999.90;;;9.90;99.90;;;;;;5014932;28;20206;-78
2021/05/21 00:28:56;;;;;;;1999.90;999.90;;;9.90;99.90;;;;;;5016530;28;20180;-78
2021/05/21 00:31:22;;;;;;;1999.90;999.90;;;9.80;99.90;;;;;;5016420;28;20179;-78
2021/05/21 00:33:49;;;;;;;1999.90;999.90;;;9.90;99.90;;;;;;5003975;28;20186;-78
2021/05/21 00:36:15;;;;;;;1999.90;999.90;;;9.90;99.90;;;;;;5036090;28;20221;-78
2021/05/21 00:38:41;;;;;;;1999.90;999.90;;;9.90;99.90;;;;;;5034439;28;20178;-78
2021/05/21 00:41:06;;;;;;;1999.90;999.90;;;9.80;99.90;;;;;;5035352;28;20178;-78
2021/05/21 00:43:32;;;;;;;1999.90;999.90;;;9.90;99.90;;;;;;5034819;28;20273;-78
2021/05/21 00:45:59;;;;;;;1999.90;999.90;;;9.90;99.90;;;;;;5036676;28;20677;-78
2021/05/21 00:48:24;;;;;;;1999.90;999.90;;;9.80;99.90;;;;;;5022862;28;20712;-78
2021/05/21 00:50:50;;;;;;;1999.90;999.90;;;9.80;99.90;;;;;;5016250;28;20167;-78
2021/05/21 00:53:18;;;;;;;1999.90;999.90;;;9.80;99.90;;;;;;4997214;28;20233;-79
2021/05/21 00:55:43;;;;;;;1999.90;999.90;;;9.80;99.90;;;;;;5013658;28;20199;-78
2021/05/21 00:58:09;;;;;;;1999.90;999.90;;;9.80;99.90;;;;;;5015617;28;20186;-79
2021/05/21 01:00:35;;;;;;;1999.90;999.90;;;9.80;99.90;;;;;;5014912;28;20189;-78
2021/05/21 01:03:00;;;;;;;1999.90;999.90;;;9.70;99.90;;;;;;5014623;28;20183;-79
2021/05/21 01:05:26;;;;;;;1999.90;999.90;;;9.80;99.90;;;;;;5027250;28;20685;-79
2021/05/21 01:07:52;;;;;;;1999.90;999.90;;;9.70;99.90;;;;;;5016919;28;20175;-79
2021/05/21 01:10:17;;;;;;;1999.90;999.90;;;9.70;99.90;;;;;;5005794;28;20199;-79
2021/05/21 01:12:43;;;;;;;1999.90;999.90;;;9.70;99.90;;;;;;5015134;28;20666;-78
2021/05/21 01:15:11;;;;;;;1999.90;999.90;;;9.70;99.90;;;;;;4997505;28;20207;-79
2021/05/21 01:17:37;;;;;;;1999.90;999.90;;;9.60;99.90;;;;;;5037426;23;20230;-80
2021/05/21 01:20:06;;;;;;;1999.90;999.90;;;9.60;99.90;;;;;;5037283;28;20644;-78
2021/05/21 01:22:32;;;;;;;1999.90;999.90;;;9.50;99.90;;;;;;5032745;28;20170;-78
2021/05/21 01:24:57;;;;;;;1999.90;999.90;;;9.50;99.90;;;;;;5039610;28;20280;-78
2021/05/21 01:27:24;;;;;;;1999.90;999.90;;;9.50;99.90;;;;;;5035758;28;20206;-78
2021/05/21 01:29:50;;;;;;;1999.90;999.90;;;9.50;99.90;;;;;;5033908;28;20163;-80
2021/05/21 01:32:15;;;;;;;1999.90;999.90;;;9.50;99.90;;;;;;5036928;28;20197;-79
2021/05/21 01:34:41;;;;;;;1999.90;999.90;;;9.40;99.90;;;;;;5034327;28;20205;-79
2021/05/21 01:37:18;;;;;;;1999.90;999.90;;;9.40;99.90;;;;;;5037919;28;20233;-79
2021/05/21 01:39:44;;;;;;;1999.90;999.90;;;9.30;99.90;;;;;;5034386;28;20231;-80
2021/05/21 01:42:12;;;;;;;1999.90;999.90;;;9.30;99.90;;;;;;5038355;28;20185;-79
2021/05/21 01:44:40;;;;;;;1999.90;999.90;;;9.20;99.90;;;;;;5054728;28;20202;-80
2021/05/21 01:47:06;;;;;;;1999.90;999.90;;;9.20;99.90;;;;;;5037352;28;20194;-79
2021/05/21 01:49:32;;;;;;;1999.90;999.90;;;9.20;99.90;;;;;;5053916;28;20255;-79
2021/05/21 01:51:59;;;;;;;1999.90;999.90;;;9.20;99.90;;;;;;5035388;28;20255;-78
2021/05/21 01:54:27;;;;;;;1999.90;999.90;;;9.20;99.90;;;;;;5052391;28;20178;-79
2021/05/21 01:56:53;;;;;;;1999.90;999.90;;;9.20;99.90;;;;;;5053173;28;20284;-78
2021/05/21 01:59:22;;;;;;;1999.90;999.90;;;9.30;99.90;;;;;;5035602;28;20223;-78
2021/05/21 02:01:48;;;;;;;1999.90;999.90;;;9.10;99.90;;;;;;5046704;28;20182;-80
2021/05/21 02:04:15;;;;;;;1999.90;999.90;;;9.10;99.90;;;;;;5049132;28;20194;-79
2021/05/21 02:06:42;;;;;;;1999.90;999.90;;;9.00;99.90;;;;;;5028844;28;20699;-77
2021/05/21 02:09:10;;;;;;;1999.90;999.90;;;9.00;99.90;;;;;;5037652;28;20665;-79
2021/05/21 02:11:37;;;;;;;1999.90;999.90;;;9.00;99.90;;;;;;5050875;28;20209;-79
2021/05/21 02:14:04;;;;;;;1999.90;999.90;;;9.00;99.90;;;;;;5051423;28;20188;-80
2021/05/21 02:16:29;;;;;;;1999.90;999.90;;;9.00;99.90;;;;;;5052868;28;20192;-80
2021/05/21 02:18:55;;;;;;;1999.90;999.90;;;9.00;99.90;;;;;;5052435;28;20605;-79
2021/05/21 02:21:22;;;;;;;1999.90;999.90;;;9.00;99.90;;;;;;5033747;28;20178;-78
2021/05/21 02:23:48;;;;;;;1999.90;999.90;;;8.90;99.90;;;;;;5052454;28;20193;-78
2021/05/21 02:26:13;;;;;;;1999.90;999.90;;;8.90;99.90;;;;;;5052458;28;20219;-78
2021/05/21 02:28:39;;;;;;;1999.90;999.90;;;8.80;99.90;;;;;;5052719;28;20204;-78
2021/05/21 02:31:05;;;;;;;1999.90;999.90;;;8.90;99.90;;;;;;5052180;28;20245;-78
2021/05/21 02:33:30;;;;;;;1999.90;999.90;;;8.90;99.90;;;;;;5034629;28;20560;-78
2021/05/21 02:35:56;;;;;;;1999.90;999.90;;;8.90;99.90;;;;;;5052280;28;20197;-79
2021/05/21 02:38:21;;;;;;;1999.90;999.90;;;9.00;99.90;;;;;;5034905;28;20201;-79
2021/05/21 02:40:47;;;;;;;1999.90;999.90;;;9.00;99.90;;;;;;5053817;28;20201;-78
2021/05/21 02:43:14;;;;;;;1999.90;999.90;;;9.00;99.90;;;;;;5034190;28;20178;-78
2021/05/21 02:45:39;;;;;;;1999.90;999.90;;;9.00;99.90;;;;;;5034247;28;20538;-79
2021/05/21 02:48:05;;;;;;;1999.90;999.90;;;9.10;99.90;;;;;;5052352;28;20190;-78
2021/05/21 02:50:31;;;;;;;1999.90;999.90;;;9.10;99.90;;;;;;5037467;28;20529;-78
2021/05/21 02:52:57;;;;;;;1999.90;999.90;;;9.00;99.90;;;;;;5034731;28;20232;-78
2021/05/21 02:55:23;;;;;;;1999.90;999.90;;;8.90;99.90;;;;;;5052078;28;20171;-78
2021/05/21 02:57:49;;;;;;;1999.90;999.90;;;9.00;99.90;;;;;;5052030;28;20890;-79
2021/05/21 03:00:15;;;;;;;1999.90;999.90;;;8.90;99.90;;;;;;5052496;28;20168;-79
2021/05/21 03:02:41;;;;;;;1999.90;999.90;;;9.00;99.90;;;;;;5043359;28;20615;-80
2021/05/21 03:05:07;;;;;;;1999.90;999.90;;;8.90;99.90;;;;;;5051405;28;20221;-80
2021/05/21 03:07:33;;;;;;;1999.90;999.90;;;9.00;99.90;;;;;;5051902;28;20205;-79
2021/05/21 03:09:58;;;;;;;1999.90;999.90;;;9.00;99.90;;;;;;5052483;28;20165;-79
2021/05/21 03:12:24;;;;;;;1999.90;999.90;;;9.00;99.90;;;;;;5051841;28;20284;-79
2021/05/21 03:14:50;;;;;;;1999.90;999.90;;;8.90;99.90;;;;;;5052380;28;20708;-78
2021/05/21 03:17:16;;;;;;;1999.90;999.90;;;9.00;99.90;;;;;;5051232;28;20224;-79
2021/05/21 03:19:41;;;;;;;1999.90;999.90;;;8.90;99.90;;;;;;5051973;28;20260;-79
2021/05/21 03:22:07;;;;;;;1999.90;999.90;;;8.90;99.90;;;;;;5051869;28;20291;-78
2021/05/21 03:24:33;;;;;;;1999.90;999.90;;;8.90;99.90;;;;;;5052094;28;20617;-78
2021/05/21 03:26:59;;;;;;;1999.90;999.90;;;8.90;99.90;;;;;;5051694;28;20683;-78
2021/05/21 03:29:24;;;;;;;1999.90;999.90;;;9.00;99.90;;;;;;5051960;28;20177;-80
2021/05/21 03:31:50;;;;;;;1999.90;999.90;;;9.00;99.90;;;;;;5048757;28;20248;-79
2021/05/21 03:34:18;;;;;;;1999.90;999.90;;;9.00;99.90;;;;;;5052531;28;20200;-79
2021/05/21 03:36:43;;;;;;;1999.90;999.90;;;9.00;99.90;;;;;;5051522;28;20625;-77
2021/05/21 03:39:10;;;;;;;1999.90;999.90;;;8.90;99.90;;;;;;5033680;28;20201;-80
2021/05/21 03:41:36;;;;;;;1999.90;999.90;;;8.90;99.90;;;;;;5051903;28;20182;-80
2021/05/21 03:44:02;;;;;;;1999.90;999.90;;;8.90;99.90;;;;;;5051727;28;20259;-81
2021/05/21 03:46:28;;;;;;;1999.90;999.90;;;8.80;99.90;;;;;;5052748;28;20189;-79
2021/05/21 03:48:54;;;;;;;1999.90;999.90;;;8.90;99.90;;;;;;5052439;28;20186;-79
2021/05/21 03:51:20;;;;;;;1999.90;999.90;;;8.80;99.90;;;;;;5051441;28;20309;-79
2021/05/21 03:53:46;;;;;;;1999.90;999.90;;;8.80;99.90;;;;;;5051398;28;20711;-78
2021/05/21 03:56:12;;;;;;;1999.90;999.90;;;8.80;99.90;;;;;;5024790;28;20184;-78
2021/05/21 03:58:39;;;;;;;1999.90;999.90;;;8.80;99.90;;;;;;5035997;28;20695;-78
2021/05/21 04:01:05;;;;;;;1999.90;999.90;;;8.80;99.90;;;;;;5036761;28;20178;-78
2021/05/21 04:03:31;;;;;;;1999.90;999.90;;;8.90;99.90;;;;;;5041483;28;20205;-78
2021/05/21 04:05:56;;;;;;;1999.90;999.90;;;8.80;99.90;;;;;;5022451;28;20955;-78
2021/05/21 04:08:22;;;;;;;1999.90;999.90;;;8.80;99.90;;;;;;5048706;28;20695;-78
2021/05/21 04:10:48;;;;;;;1999.90;999.90;;;8.80;99.90;;;;;;5044673;28;20185;-78
2021/05/21 04:13:14;;;;;;;1999.90;999.90;;;8.80;99.90;;;;;;5047627;28;20183;-79
2021/05/21 04:15:39;;;;;;;1999.90;999.90;;;8.80;99.90;;;;;;5053304;28;20192;-79
2021/05/21 04:18:07;;;;;;;1999.90;999.90;;;8.90;99.90;;;;;;5036772;28;20213;-79
2021/05/21 04:20:33;;;;;;;1999.90;999.90;;;8.90;99.90;;;;;;5056746;28;20174;-80
2021/05/21 04:23:04;;;;;;;1999.90;999.90;;;8.90;99.90;;;;;;5056731;28;20174;-79
2021/05/21 04:25:30;;;;;;;1999.90;999.90;;;9.00;99.90;;;;;;5057231;28;20538;-78
2021/05/21 04:27:56;;;;;;;1999.90;999.90;;;8.90;99.90;;;;;;5057185;28;20676;-78
2021/05/21 04:30:23;;;;;;;1999.90;999.90;;;9.00;99.90;;;;;;5052262;28;20178;-78
2021/05/21 04:32:53;;;;;;;1999.90;999.90;;;9.00;99.90;;;;;;5030596;28;20174;-78
2021/05/21 04:35:19;;;;;;;1999.90;999.90;;;9.00;99.90;;;;;;5056964;28;20174;-78
2021/05/21 04:37:46;;;;;;;1999.90;999.90;;;8.90;99.90;;;;;;5039028;28;20198;-77
2021/05/21 04:40:12;;;;;;;1999.90;999.90;;;8.80;99.90;;;;;;5055985;28;20253;-78
2021/05/21 04:42:38;;;;;;;1999.90;999.90;;;8.80;99.90;;;;;;5031617;28;20231;-78
2021/05/21 04:45:06;;;;;;;1999.90;999.90;;;8.80;99.90;;;;;;5041967;28;20198;-78
2021/05/21 04:47:32;;;;;;;1999.90;999.90;;;8.80;99.90;;;;;;5036756;28;20224;-78
2021/05/21 04:49:57;;;;;;;1999.90;999.90;;;8.90;99.90;;;;;;5036519;28;20177;-78
2021/05/21 04:52:23;;;;;;;1999.90;999.90;;;8.90;99.90;;;;;;5042412;28;20300;-78
2021/05/21 04:54:49;;;;;;;1999.90;999.90;;;9.00;99.90;;;;;;5038926;28;20223;-78
2021/05/21 04:57:14;;;;;;;1999.90;999.90;;;9.00;99.90;;;;;;5038431;28;20204;-78
2021/05/21 04:59:40;;;;;;;1999.90;999.90;;;9.10;99.90;;;;;;5057088;28;20186;-78
2021/05/21 05:02:06;;;;;;;1999.90;999.90;;;9.20;99.90;;;;;;5048091;28;20208;-78
2021/05/21 05:04:32;;;;;;;1999.90;999.90;;;9.10;99.90;;;;;;5037098;28;20187;-78
2021/05/21 05:06:58;;;;;;;1999.90;999.90;;;9.20;99.90;;;;;;5035940;28;20166;-78
2021/05/21 05:09:24;;;;;;;1999.90;999.90;;;9.20;99.90;;;;;;5036603;28;20217;-77
2021/05/21 05:11:49;;;;;;;1999.90;999.90;;;9.30;99.90;;;;;;5045066;28;20212;-77
2021/05/21 05:14:15;;;;;;;1999.90;999.90;;;9.30;99.90;;;;;;5054316;28;20648;-77
2021/05/21 05:16:41;;;;;;;1999.90;999.90;;;9.30;99.90;;;;;;5055203;28;20540;-78
2021/05/21 05:19:07;;;;;;;1999.90;999.90;;;9.30;99.90;;;;;;5038182;28;20219;-82
2021/05/21 05:21:35;;;;;;;1999.90;999.90;;;9.30;99.90;;;;;;5057489;28;20196;-83
2021/05/21 05:24:02;;;;;;;1999.90;999.90;;;9.40;99.90;;;;;;5056739;28;20186;-83
2021/05/21 05:26:29;;;;;;;1999.90;999.90;;;9.40;99.90;;;;;;5057121;28;20243;-83
2021/05/21 05:28:55;;;;;;;1999.90;999.90;;;9.50;99.90;;;;;;5053611;28;20194;-83
2021/05/21 05:31:21;;;;;;;1999.90;999.90;;;9.50;99.90;;;;;;5038753;28;20165;-82
2021/05/21 05:33:47;;;;;;;1999.90;999.90;;;9.50;99.90;;;;;;5053949;28;20178;-82
2021/05/21 05:36:13;;;;;;;1999.90;999.90;;;9.50;99.90;;;;;;5039281;28;20179;-83
2021/05/21 05:38:39;;;;;;;1999.90;999.90;;;9.60;99.90;;;;;;5043949;28;20212;-82
2021/05/21 05:41:05;;;;;;;1999.90;999.90;;;9.60;99.90;;;;;;5036847;28;20199;-83
2021/05/21 05:43:30;;;;;;;1999.90;999.90;;;9.60;99.90;;;;;;5036520;28;20211;-84
2021/05/21 05:45:56;;;;;;;1999.90;999.90;;;9.60;99.90;;;;;;5039630;28;20174;-83
2021/05/21 05:48:22;;;;;;;1999.90;999.90;;;9.70;99.90;;;;;;5043687;28;20197;-82
2021/05/21 05:50:50;;;;;;;1999.90;999.90;;;9.70;99.90;;;;;;5055808;28;20179;-82
2021/05/21 05:53:19;;;;;;;1999.90;999.90;;;9.80;99.90;;;;;;5054543;28;20174;-83
2021/05/21 05:55:45;;;;;;;1999.90;999.90;;;9.90;99.90;;;;;;5057063;28;20559;-84
2021/05/21 05:58:11;;;;;;;1999.90;999.90;;;10.00;99.90;;;;;;5024126;28;20199;-82
2021/05/21 06:00:37;;;;;;;1999.90;999.90;;;10.00;99.90;;;;;;5054102;28;20174;-83
2021/05/21 06:03:10;;;;;;;1999.90;999.90;;;10.10;99.90;;;;;;5049799;28;20174;-83
2021/05/21 06:05:37;;;;;;;1999.90;999.90;;;10.20;99.90;;;;;;5058048;28;20176;-83
2021/05/21 06:08:05;;;;;;;1999.90;999.90;;;10.40;99.90;;;;;;5057838;28;20269;-83
2021/05/21 06:10:35;;;;;;;1999.90;999.90;;;10.50;99.90;;;;;;5057912;28;20183;-83
2021/05/21 06:13:06;;;;;;;1999.90;999.90;;;10.60;99.90;;;;;;5057259;28;20179;-83
2021/05/21 06:15:34;;;;;;;1999.90;999.90;;;10.70;99.90;;;;;;5039795;28;20580;-83
2021/05/21 06:18:00;;;;;;;1999.90;999.90;;;10.80;99.90;;;;;;5027803;28;20575;-84
2021/05/21 06:20:28;;;;;;;1999.90;999.90;;;10.80;99.90;;;;;;5057661;28;20178;-83
2021/05/21 06:22:54;;;;;;;1999.90;999.90;;;10.80;99.90;;;;;;5057189;28;20539;-83
2021/05/21 06:25:23;;;;;;;1999.90;999.90;;;10.80;99.90;;;;;;5039262;28;20198;-83
2021/05/21 06:27:49;;;;;;;1999.90;999.90;;;10.90;99.90;;;;;;5039222;28;20191;-83
2021/05/21 06:30:15;;;;;;;1999.90;999.90;;;11.00;99.90;;;;;;5055800;28;20168;-84
2021/05/21 06:32:43;;;;;;;1999.90;999.90;;;11.10;99.90;;;;;;5039621;28;20180;-83
2021/05/21 06:35:10;;;;;;;1999.90;999.90;;;11.10;99.90;;;;;;5053369;28;20666;-83
2021/05/21 06:37:36;;;;;;;1999.90;999.90;;;11.30;99.90;;;;;;5056155;28;20671;-84
2021/05/21 06:40:04;;;;;;;1999.90;999.90;;;11.30;99.90;;;;;;5054955;28;20186;-84
2021/05/21 06:42:29;;;;;;;1999.90;999.90;;;11.40;99.90;;;;;;5057029;28;20177;-83
2021/05/21 06:44:55;;;;;;;1999.90;999.90;;;11.60;99.90;;;;;;5038195;28;20266;-83
2021/05/21 06:47:21;;;;;;;1999.90;999.90;;;11.70;99.90;;;;;;5056145;28;20200;-84
2021/05/21 06:49:48;;;;;;;1999.90;999.90;;;11.80;99.90;;;;;;5057699;28;20175;-81
2021/05/21 06:52:14;;;;;;;1999.90;999.90;;;11.90;99.90;;;;;;5059234;28;20224;-83
2021/05/21 06:54:44;;;;;;;1999.90;999.90;;;11.90;99.90;;;;;;5037387;28;20179;-82
2021/05/21 06:57:10;;;;;;;1999.90;999.90;;;12.00;99.90;;;;;;5037078;28;20753;-82
2021/05/21 06:59:35;;;;;;;1999.90;999.90;;;12.10;99.90;;;;;;5040463;28;20180;-83
2021/05/21 07:02:02;;;;;;;1999.90;999.90;;;12.20;99.90;;;;;;5050072;28;20176;-83
2021/05/21 07:04:28;;;;;;;1999.90;999.90;;;12.30;99.90;;;;;;5041512;28;20254;-83
2021/05/21 07:06:53;;;;;;;1999.90;999.90;;;12.30;99.90;;;;;;5058378;28;20170;-83
2021/05/21 07:09:19;;;;;;;1999.90;999.90;;;12.40;99.90;;;;;;5057773;28;20199;-82
2021/05/21 07:11:45;;;;;;;1999.90;999.90;;;12.40;99.90;;;;;;5056883;28;20178;-83
2021/05/21 07:14:10;;;;;;;1999.90;999.90;;;12.50;99.90;;;;;;5058142;28;20176;-82
2021/05/21 07:16:37;;;;;;;1999.90;999.90;;;12.50;99.90;;;;;;5058373;28;20179;-82
2021/05/21 07:19:03;;;;;;;1999.90;999.90;;;12.60;99.90;;;;;;5082713;22;20234;-82
2021/05/21 07:21:28;;;;;;;1999.90;999.90;;;12.60;99.90;;;;;;5060011;28;20181;-83
2021/05/21 07:23:54;;;;;;;1999.90;999.90;;;12.60;99.90;;;;;;5061393;28;20705;-77
2021/05/21 07:26:21;;;;;;;1999.90;999.90;;;12.50;99.90;;;;;;5034404;28;20220;-77
2021/05/21 07:28:47;;;;;;;1999.90;999.90;;;12.60;99.90;;;;;;5052662;28;20201;-77
2021/05/21 07:31:14;;;;;;;1999.90;999.90;;;12.60;99.90;;;;;;5034950;28;20191;-76
2021/05/21 07:33:39;;;;;;;1999.90;999.90;;;12.60;99.90;;;;;;5052780;28;20219;-77
2021/05/21 07:36:06;;;;;;;1999.90;999.90;;;12.60;99.90;;;;;;5052676;28;20361;-77
2021/05/21 07:38:32;;;;;;;1999.90;999.90;;;12.60;99.90;;;;;;5052751;28;20180;-77
2021/05/21 07:40:58;;;;;;;1999.90;999.90;;;12.60;99.90;;;;;;5038865;28;20185;-77
2021/05/21 07:43:24;;;;;;;1999.90;999.90;;;12.70;99.90;;;;;;5048603;28;20182;-77
2021/05/21 07:45:50;;;;;;;1999.90;999.90;;;12.70;99.90;;;;;;5034756;28;20173;-77
2021/05/21 07:48:15;;;;;;;1999.90;999.90;;;12.80;99.90;;;;;;5039900;28;20188;-77
2021/05/21 07:50:41;;;;;;;1999.90;999.90;;;12.90;99.90;;;;;;5052594;28;20256;-77
2021/05/21 07:53:08;;;;;;;1999.90;999.90;;;12.90;99.90;;;;;;5036630;28;20188;-77
2021/05/21 07:55:34;;;;;;;1999.90;999.90;;;13.00;99.90;;;;;;5010410;28;20178;-78
2021/05/21 07:58:00;;;;;;;1999.90;999.90;;;13.00;99.90;;;;;;5019577;28;20171;-77
2021/05/21 08:00:25;;;;;;;1999.90;999.90;;;13.10;99.90;;;;;;5017581;28;20198;-78
2021/05/21 08:02:51;;;;;;;1999.90;999.90;;;13.10;99.90;;;;;;5028942;28;20177;-78
2021/05/21 08:05:17;;;;;;;1999.90;999.90;;;13.20;99.90;;;;;;5056111;28;20609;-76
2021/05/21 08:07:43;;;;;;;1999.90;999.90;;;13.20;99.90;;;;;;5056261;28;20183;-76
2021/05/21 08:10:09;;;;;;;1999.90;999.90;;;13.20;99.90;;;;;;5037978;28;20585;-75
2021/05/21 08:12:35;;;;;;;1999.90;999.90;;;13.20;99.90;;;;;;5056319;28;20211;-76
2021/05/21 08:15:02;;;;;;;1999.90;999.90;;;13.20;99.90;;;;;;5055880;28;20186;-76
2021/05/21 08:17:32;;;;;;;1999.90;999.90;;;13.20;99.90;;;;;;5055973;28;20180;-75
2021/05/21 08:19:58;;;;;;;1999.90;999.90;;;13.10;99.90;;;;;;5055675;28;20220;-76
2021/05/21 08:22:24;;;;;;;1999.90;999.90;;;13.10;99.90;;;;;;5055853;28;20176;-76
2021/05/21 08:24:50;;;;;;;1999.90;999.90;;;13.10;99.90;;;;;;5055864;28;20192;-76
2021/05/21 08:27:15;;;;;;;1999.90;999.90;;;13.00;99.90;;;;;;5037857;28;20182;-77
2021/05/21 08:29:41;;;;;;;1999.90;999.90;;;13.00;99.90;;;;;;5055759;28;20195;-76
2021/05/21 08:32:06;;;;;;;1999.90;999.90;;;13.10;99.90;;;;;;5055660;28;20181;-76
2021/05/21 08:34:32;;;;;;;1999.90;999.90;;;13.00;99.90;;;;;;5055745;28;20698;-76
2021/05/21 08:36:58;;;;;;;1999.90;999.90;;;12.90;99.90;;;;;;5043901;28;20181;-76
2021/05/21 08:39:23;;;;;;;1999.90;999.90;;;12.90;99.90;;;;;;5047264;28;20319;-77
2021/05/21 08:41:53;;;;;;;1999.90;999.90;;;12.80;99.90;;;;;;5031303;28;20670;-76
2021/05/21 08:44:20;;;;;;;1999.90;999.90;;;12.70;99.90;;;;;;5055547;28;20197;-77
2021/05/21 08:46:46;;;;;;;1999.90;999.90;;;12.50;99.90;;;;;;5055889;28;20677;-77
2021/05/21 08:49:12;;;;;;;1999.90;999.90;;;12.40;99.90;;;;;;5052346;28;20193;-78
2021/05/21 08:51:38;;;;;;;1999.90;999.90;;;12.30;99.90;;;;;;5015576;28;20180;-76
2021/05/21 08:54:06;;;;;;;1999.90;999.90;;;12.20;99.90;;;;;;5034245;28;20397;-77
2021/05/21 08:56:34;;;;;;;1999.90;999.90;;;12.10;99.90;;;;;;5054009;28;20187;-77
2021/05/21 08:58:59;;;;;;;1999.90;999.90;;;12.20;99.90;;;;;;5036304;28;20194;-79
2021/05/21 09:01:27;;;;;;;1999.90;999.90;;;12.20;99.90;;;;;;5055174;28;20682;-77
2021/05/21 09:04:01;;;;;;;1999.90;999.90;;;12.10;99.90;;;;;;5054875;28;20196;-77
2021/05/21 09:06:28;;;;;;;1999.90;999.90;;;12.10;99.90;;;;;;5054879;28;20197;-77
2021/05/21 11:04:39;;;;;;;1999.90;999.90;;;11.70;99.90;;;;;;5083135;27;867746;-84
2021/05/21 11:09:41;;;;;;;1999.90;999.90;;;11.90;99.90;;;;;;5138095;22;20308;-84
2021/05/21 11:12:08;;;;;;;1999.90;999.90;;;12.00;99.90;;;;;;5105714;28;20175;-83
2021/05/21 11:14:35;;;;;;;1999.90;999.90;;;11.90;99.90;;;;;;5094495;28;20179;-83
2021/05/21 11:17:25;;;;;;;1999.90;999.90;;;12.00;99.90;;;;;;5091004;28;20190;-82
2021/05/21 11:20:02;;;;;;;1999.90;999.90;;;12.00;99.90;;;;;;5077137;28;20173;-81
2021/05/21 11:22:27;;;;;;;1999.90;999.90;;;12.10;99.90;;;;;;5071164;28;20204;-85
2021/05/21 11:25:03;;;;;;;1999.90;999.90;;;12.20;99.90;;;;;;5071170;28;20172;-84
2021/05/21 11:27:32;;;;;;;1999.90;999.90;;;12.20;99.90;;;;;;5053735;28;20205;-81
2021/05/21 11:30:00;;;;;;;1999.90;999.90;;;12.30;99.90;;;;;;5077284;28;20187;-84
2021/05/21 11:32:26;;;;;;;1999.90;999.90;;;12.20;99.90;;;;;;5090702;28;20184;-84
2021/05/21 11:34:52;;;;;;;1999.90;999.90;;;12.30;99.90;;;;;;5091339;28;20204;-83
2021/05/21 11:37:25;;;;;;;1999.90;999.90;;;12.40;99.90;;;;;;5091814;28;20174;-73
2021/05/21 11:39:52;;;;;;;1999.90;999.90;;;12.30;99.90;;;;;;5089800;28;20198;-75
2021/05/21 11:42:20;;;;;;;1999.90;999.90;;;12.40;99.90;;;;;;5089302;28;20199;-73
2021/05/21 11:44:48;;;;;;;1999.90;999.90;;;12.30;99.90;;;;;;5089432;28;20169;-74
2021/05/21 11:47:31;;;;;;;1999.90;999.90;;;12.20;99.90;;;;;;5087568;28;20183;-75
2021/05/21 11:49:58;;;;;;;1999.90;999.90;;;12.20;99.90;;;;;;5078059;28;20174;-74
2021/05/21 11:52:24;;;;;;;1999.90;999.90;;;12.20;99.90;;;;;;5070090;28;20194;-73
2021/05/21 11:54:52;;;;;;;1999.90;999.90;;;12.30;99.90;;;;;;5088798;28;20174;-73
2021/05/21 11:57:25;;;;;;;1999.90;999.90;;;12.30;99.90;;;;;;5089235;28;20176;-75
2021/05/21 11:59:54;;;;;;;1999.90;999.90;;;12.40;99.90;;;;;;5089372;28;20232;-75
2021/05/21 12:02:20;;;;;;;1999.90;999.90;;;12.50;99.90;;;;;;5088916;28;20199;-73
2021/05/21 12:04:47;;;;;;;1999.90;999.90;;;12.40;99.90;;;;;;5080882;28;20230;-73
2021/05/21 12:07:22;;;;;;;1999.90;999.90;;;12.60;99.90;;;;;;5071070;28;20186;-74
2021/05/21 12:10:00;;;;;;;1999.90;999.90;;;12.60;99.90;;;;;;5055859;28;20183;-74
2021/05/21 12:12:27;;;;;;;1999.90;999.90;;;12.60;99.90;;;;;;5055179;28;20172;-74
2021/05/21 12:15:15;;;;;;;1999.90;999.90;;;12.60;99.90;;;;;;5037727;28;20271;-74
2021/05/21 12:17:45;;;;;;;1999.90;999.90;;;12.70;99.90;;;;;;5062143;28;20192;-74
2021/05/21 12:20:13;;;;;;;1999.90;999.90;;;12.60;99.90;;;;;;5075552;28;20187;-75
2021/05/21 12:22:38;;;;;;;1999.90;999.90;;;12.60;99.90;;;;;;5074947;28;20195;-74
2021/05/21 12:25:20;;;;;;;1999.90;999.90;;;12.60;99.90;;;;;;5057363;28;20176;-76
2021/05/21 12:27:45;;;;;;;1999.90;999.90;;;12.70;99.90;;;;;;5075449;28;20290;-74
2021/05/21 12:30:12;;;;;;;1999.90;999.90;;;12.70;99.90;;;;;;5075266;28;20180;-75
2021/05/21 12:32:38;;;;;;;1999.90;999.90;;;12.70;99.90;;;;;;5074851;28;20676;-74
2021/05/21 12:35:10;;;;;;;1999.90;999.90;;;12.70;99.90;;;;;;5057285;28;20184;-74
2021/05/21 12:37:47;;;;;;;1999.90;999.90;;;12.80;99.90;;;;;;5075234;28;20204;-75
2021/05/21 12:40:14;;;;;;;1999.90;999.90;;;12.80;99.90;;;;;;5075399;28;20555;-76
2021/05/21 12:42:51;;;;;;;1999.90;999.90;;;12.80;99.90;;;;;;5074532;28;20710;-76
2021/05/21 12:45:18;;;;;;;1999.90;999.90;;;12.90;99.90;;;;;;5075338;28;20176;-73
2021/05/21 12:47:52;;;;;;;1999.90;999.90;;;12.80;99.90;;;;;;5074871;28;20580;-75
2021/05/21 12:50:19;;;;;;;1999.90;999.90;;;12.80;99.90;;;;;;5074985;28;20171;-75
2021/05/21 12:52:56;;;;;;;1999.90;999.90;;;12.80;99.90;;;;;;5074430;28;20176;-74
2021/05/21 12:55:22;;;;;;;1999.90;999.90;;;12.70;99.90;;;;;;5074854;28;20187;-75
2021/05/21 12:57:47;;;;;;;1999.90;999.90;;;12.70;99.90;;;;;;5056840;28;20200;-76
2021/05/21 13:00:18;;;;;;;1999.90;999.90;;;12.70;99.90;;;;;;5056792;28;20551;-75
2021/05/21 13:02:50;;;;;;;1999.90;999.90;;;12.70;99.90;;;;;;5074451;28;20566;-75
2021/05/21 13:05:18;;;;;;;1999.90;999.90;;;12.70;99.90;;;;;;5070472;28;20188;-74
2021/05/21 13:07:58;;;;;;;1999.90;999.90;;;12.70;99.90;;;;;;5054445;28;20714;-75
2021/05/21 13:10:26;;;;;;;1999.90;999.90;;;12.70;99.90;;;;;;5054377;28;20206;-74
2021/05/21 13:12:54;;;;;;;1999.90;999.90;;;12.70;99.90;;;;;;5054372;28;20182;-75
2021/05/21 13:15:27;;;;;;;1999.90;999.90;;;12.70;99.90;;;;;;5054057;28;20255;-73
2021/05/21 13:17:55;;;;;;;1999.90;999.90;;;12.50;99.90;;;;;;5053876;28;20204;-74
2021/05/21 13:20:27;;;;;;;1999.90;999.90;;;12.50;99.90;;;;;;5054009;28;20546;-76
2021/05/21 13:22:57;;;;;;;1999.90;999.90;;;12.50;99.90;;;;;;5060450;28;20191;-73
2021/05/21 13:25:26;;;;;;;1999.90;999.90;;;12.30;99.90;;;;;;5056343;28;20208;-74
2021/05/21 13:27:53;;;;;;;1999.90;999.90;;;12.30;99.90;;;;;;5056147;28;20196;-74
2021/05/21 13:30:20;;;;;;;1999.90;999.90;;;12.40;99.90;;;;;;5073956;28;20262;-76
2021/05/21 13:32:46;;;;;;;1999.90;999.90;;;12.50;99.90;;;;;;5066035;28;20542;-74
2021/05/21 13:35:13;;;;;;;1999.90;999.90;;;12.50;99.90;;;;;;5054064;28;20680;-74
2021/05/21 13:37:39;;;;;;;1999.90;999.90;;;12.60;99.90;;;;;;5053918;28;20202;-76
2021/05/21 13:40:07;;;;;;;1999.90;999.90;;;12.60;99.90;;;;;;5053967;28;20245;-75
2021/05/21 13:42:35;;;;;;;1999.90;999.90;;;12.70;99.90;;;;;;5035459;28;20205;-76
2021/05/21 13:45:01;;;;;;;1999.90;999.90;;;12.70;99.90;;;;;;5054025;28;20176;-75
2021/05/21 13:47:27;;;;;;;1999.90;999.90;;;12.70;99.90;;;;;;5053711;28;20175;-75
2021/05/21 13:49:53;;;;;;;1999.90;999.90;;;12.60;99.90;;;;;;5053935;28;20181;-73
2021/05/21 13:52:18;;;;;;;1999.90;999.90;;;12.60;99.90;;;;;;5053446;28;20184;-75
2021/05/21 13:54:44;;;;;;;1999.90;999.90;;;12.70;99.90;;;;;;5053545;28;20591;-75
2021/05/21 13:57:10;;;;;;;1999.90;999.90;;;12.70;99.90;;;;;;5053515;28;20173;-72
2021/05/21 13:59:35;;;;;;;1999.90;999.90;;;12.70;99.90;;;;;;5053619;28;20181;-75
2021/05/21 14:02:01;;;;;;;1999.90;999.90;;;12.80;99.90;;;;;;5053079;28;20231;-74